• Join FlightAware (Why Join?)
  • Login
  • US Flag 
03:33PM EST


 

Airport Tracker/Info


-or-


 

Live Flight TrackerFlight Track Log ✈ AWE3921 ✈ 08-Apr-2013 ✈ KMHT - KDCA

Flight Track Log - Related Links

Times and Time Zones

All times are in EDT time to prevent confusion due to time zone crossing. See the AWE3921 flight status page for this flight to view local times or setup timezone preferences in your user account.

Time Position Orientation Groundspeed Altitude Reporting Facility
EDT Latitude Longitude Course Direction KTS MPH feet Rate Location/Type
12:19PM 43.0000 -71.4833 202° Southwest 203 234 3,400  Level KA90
12:19PM 43.0258 -71.4803 North 236 272 3,800 1,680 Climbing Boston Center
12:20PM 43.0502 -71.0993 65° Northeast  Level FlightAware Approximate
12:20PM 43.0733 -71.4339 35° Northeast 248 285 5,800  Level Boston Center
12:21PM 43.0809 -70.9797 132° Southeast  Level FlightAware Approximate
12:21PM 43.0722 -71.3203 91° East 218 251 7,900  Level Boston Center
12:22PM 43.0106 -70.8939 144° Southeast  Level FlightAware Approximate
12:22PM 43.0672 -71.2267 94° East 261 300 9,500  Level Boston Center
12:23PM 42.9269 -70.8981 202° Southwest  Level FlightAware Approximate
12:23PM 43.0717 -71.0758 88° East 293 337 11,700  Level Boston Center
12:24PM 42.8392 -70.9468 202° Southwest  Level FlightAware Approximate
12:24PM 43.0639 -70.9508 95° East 317 365 14,100  Level Boston Center
12:25PM 42.9797 -70.8878 151° Southeast 290 334 15,900 1,860 Climbing Boston Center
12:26PM 42.8906 -70.9269 198° South 259 298 17,800 1,560 Climbing Boston Center
12:27PM 42.7972 -70.9714 199° South 317 365 19,100 1,380 Climbing Boston Center
12:28PM 42.7061 -71.0189 201° Southwest 337 388 20,600 1,500 Climbing Boston Center
12:29PM 42.6108 -71.0661 200° South 351 404 22,100 1,260 Climbing Boston Center
12:30PM 42.5156 -71.1133 200° South 362 417 23,200 1,140 Climbing Boston Center
12:31PM 42.4286 -71.1658 204° Southwest 370 426 24,400 1,080 Climbing Boston Center
12:32PM 42.3861 -71.2819 244° Southwest 337 388 25,400 1,140 Climbing Boston Center
12:33PM 42.3478 -71.4036 247° West 342 394 26,700 1,080 Climbing Boston Center
12:34PM 42.3114 -71.5250 248° West 347 399 27,600 660 Climbing Boston Center
12:35PM 42.2644 -71.6575 244° Southwest 347 399 28,000 180 Climbing Boston Center
12:36PM 42.2233 -71.7897 247° West 364 419 28,000  Level Boston Center
12:37PM 42.1825 -71.9272 248° West 384 442 28,000  Level Boston Center
12:38PM 42.1392 -72.0594 246° West 389 448 28,000  Level Boston Center
12:39PM 42.1000 -72.1856 247° West 389 448 28,000  Level Boston Center
12:40PM 42.0586 -72.3169 247° West 384 442 28,000  Level Boston Center
12:41PM 42.0253 -72.4178 246° West 384 442 28,000  Level Boston Center
12:42PM 41.9772 -72.5714 247° West 378 435 28,000  Level Boston Center
12:43PM 41.9417 -72.6800 246° West 373 429 28,000  Level Boston Center
12:44PM 41.8683 -72.7886 228° Southwest 373 429 28,000  Level Boston Center
12:45PM 41.7806 -72.9078 225° Southwest 398 458 28,000 -60 Level Boston Center
12:46PM 41.7050 -73.0128 226° Southwest 405 466 27,900 -660 Descending Boston Center
12:47PM 41.6253 -73.1206 225° Southwest 405 466 26,700 -960 Descending Boston Center
12:48PM 41.5453 -73.2278 225° Southwest 405 466 26,000 -300 Descending Boston Center
12:50PM 41.4197 -73.3967 225° Southwest 384 442 26,000  Level New York Center
12:51PM 41.3447 -73.4989 226° Southwest 384 442 26,000  Level New York Center
12:52PM 41.2714 -73.6033 227° Southwest 384 442 26,000  Level New York Center
12:53PM 41.2019 -73.7164 231° Southwest 396 456 26,000  Level New York Center
12:54PM 41.1344 -73.8317 232° Southwest 402 463 26,000  Level New York Center
12:55PM 41.0669 -73.9469 232° Southwest 402 463 26,000  Level New York Center
12:56PM 40.9969 -74.0647 232° Southwest 408 470 26,000  Level New York Center
12:57PM 40.9292 -74.1794 232° Southwest 408 470 26,000  Level New York Center
12:58PM 40.8636 -74.2778 229° Southwest 403 464 26,000  Level New York Center
12:59PM 40.7936 -74.3947 232° Southwest 408 470 26,000  Level New York Center
01:00PM 40.7256 -74.5061 231° Southwest 408 470 26,000  Level New York Center
01:01PM 40.6572 -74.6200 232° Southwest 403 464 26,000  Level New York Center
01:02PM 40.5867 -74.7361 231° Southwest 403 464 26,000  Level New York Center
01:03PM 40.5122 -74.8439 228° Southwest 403 464 26,000 -120 Level New York Center
01:04PM 40.4378 -74.9486 227° Southwest 396 456 25,800 -960 Descending New York Center
01:05PM 40.3631 -75.0531 227° Southwest 396 456 24,100 -1,740 Descending New York Center
01:06PM 40.2861 -75.1625 227° Southwest 402 463 22,500 -1,140 Descending New York Center
01:07PM 40.2114 -75.2664 227° Southwest 402 463 21,900 -300 Descending New York Center
01:08PM 40.1450 -75.3625 228° Southwest 382 440 22,000  Climbing New York Center
01:09PM 40.0744 -75.4583 226° Southwest 376 433 22,000  Level New York Center
01:10PM 40.0061 -75.5539 227° Southwest 371 427 22,000  Level New York Center
01:11PM 39.9331 -75.6547 227° Southwest 371 427 22,000 -600 Level New York Center
01:12PM 39.8744 -75.7614 234° Southwest 376 433 20,900 -1,560 Descending New York Center
01:13PM 39.8136 -75.8706 234° Southwest 360 414 19,000 -1,620 Descending New York Center
01:14PM 39.7656 -75.9644 236° Southwest 329 379 17,800 -1,200 Descending New York Center
01:15PM 39.7156 -76.0578 235° Southwest 318 366 16,600 -1,260 Descending New York Center
01:16PM 39.6681 -76.1433 234° Southwest 318 366 15,300 -1,320 Descending New York Center
01:17PM 39.6219 -76.2394 238° Southwest 318 366 14,100 -1,380 Descending New York Center
01:18PM 39.5667 -76.3167 227° Southwest 295 339 12,900 -1,200 Descending Potomac TRACON
01:19PM 39.5000 -76.3667 210° Southwest 299 344 12,000 -480 Descending Potomac TRACON
01:20PM 39.4333 -76.4333 218° Southwest 287 330 12,000 -480 Level Potomac TRACON
01:22PM 39.3000 -76.5500 214° Southwest 293 337 10,600 -720 Descending Potomac TRACON
01:22PM 39.2500 -76.6000 218° Southwest 268 308 10,000 -300 Descending Potomac TRACON
01:24PM 39.1833 -76.6667 218° Southwest 266 306 10,000  Level Potomac TRACON
01:25PM 39.1500 -76.7500 243° Southwest 259 298 10,000 -540 Level Potomac TRACON
01:26PM 39.1167 -76.8333 243° Southwest 265 305 9,000 -1,080 Descending Potomac TRACON
01:27PM 39.1000 -76.9000 252° West 265 305 8,000 -1,440 Descending Potomac TRACON
01:28PM 39.0114 -76.9493 218° Southwest  Level Estimated
01:29PM 39.0500 -77.0833 218° Southwest 246 283 4,900  Level Potomac TRACON
01:30PM 39.0167 -77.1500 237° Southwest 248 285 3,100 -1,140 Descending Potomac TRACON
01:31PM 38.9500 -77.1333 169° South 198 228 2,500 -600 Descending Potomac TRACON